sensor_id;sensor_type;location;lat;lon;timestamp;P1;durP1;ratioP1;P2;durP2;ratioP2
12792;SDS011;6460;42.684;23.260;2023-08-08T00:01:06;1.47;;;1.17;;
12792;SDS011;6460;42.684;23.260;2023-08-08T00:03:33;1.17;;;1.07;;
12792;SDS011;6460;42.684;23.260;2023-08-08T00:06:02;1.00;;;0.90;;
12792;SDS011;6460;42.684;23.260;2023-08-08T00:08:30;1.10;;;1.00;;
12792;SDS011;6460;42.684;23.260;2023-08-08T00:10:58;1.13;;;1.03;;
12792;SDS011;6460;42.684;23.260;2023-08-08T00:13:25;1.30;;;1.20;;
12792;SDS011;6460;42.684;23.260;2023-08-08T00:15:52;1.20;;;1.10;;
12792;SDS011;6460;42.684;23.260;2023-08-08T00:18:20;1.33;;;1.03;;
12792;SDS011;6460;42.684;23.260;2023-08-08T00:20:47;1.10;;;1.00;;
12792;SDS011;6460;42.684;23.260;2023-08-08T00:23:16;1.13;;;1.03;;
12792;SDS011;6460;42.684;23.260;2023-08-08T00:25:43;1.37;;;1.20;;
12792;SDS011;6460;42.684;23.260;2023-08-08T00:28:15;1.20;;;1.10;;
12792;SDS011;6460;42.684;23.260;2023-08-08T00:30:42;1.83;;;1.20;;
12792;SDS011;6460;42.684;23.260;2023-08-08T00:33:11;1.47;;;1.37;;
12792;SDS011;6460;42.684;23.260;2023-08-08T00:35:38;1.13;;;1.03;;
12792;SDS011;6460;42.684;23.260;2023-08-08T00:38:05;1.20;;;1.10;;
12792;SDS011;6460;42.684;23.260;2023-08-08T00:40:34;1.20;;;1.10;;
12792;SDS011;6460;42.684;23.260;2023-08-08T00:43:02;1.57;;;1.27;;
12792;SDS011;6460;42.684;23.260;2023-08-08T00:45:30;1.30;;;1.20;;
12792;SDS011;6460;42.684;23.260;2023-08-08T00:47:57;2.33;;;1.13;;
12792;SDS011;6460;42.684;23.260;2023-08-08T00:50:24;1.50;;;1.40;;
12792;SDS011;6460;42.684;23.260;2023-08-08T00:52:52;1.73;;;1.50;;
12792;SDS011;6460;42.684;23.260;2023-08-08T00:55:19;1.30;;;1.20;;
12792;SDS011;6460;42.684;23.260;2023-08-08T00:57:49;1.40;;;1.17;;
12792;SDS011;6460;42.684;23.260;2023-08-08T01:00:17;1.60;;;1.33;;
12792;SDS011;6460;42.684;23.260;2023-08-08T01:02:44;1.40;;;1.30;;
12792;SDS011;6460;42.684;23.260;2023-08-08T01:05:12;1.90;;;1.40;;
12792;SDS011;6460;42.684;23.260;2023-08-08T01:07:41;1.10;;;1.00;;
12792;SDS011;6460;42.684;23.260;2023-08-08T01:10:14;1.30;;;1.20;;
12792;SDS011;6460;42.684;23.260;2023-08-08T01:12:44;1.40;;;1.30;;
12792;SDS011;6460;42.684;23.260;2023-08-08T01:15:17;1.17;;;1.07;;
12792;SDS011;6460;42.684;23.260;2023-08-08T01:17:46;1.63;;;1.47;;
12792;SDS011;6460;42.684;23.260;2023-08-08T01:20:14;2.17;;;1.20;;
12792;SDS011;6460;42.684;23.260;2023-08-08T01:22:48;1.37;;;1.27;;
12792;SDS011;6460;42.684;23.260;2023-08-08T01:25:24;1.37;;;1.27;;
12792;SDS011;6460;42.684;23.260;2023-08-08T01:27:51;1.20;;;1.10;;
12792;SDS011;6460;42.684;23.260;2023-08-08T01:30:19;1.50;;;1.30;;
12792;SDS011;6460;42.684;23.260;2023-08-08T01:32:46;1.20;;;1.10;;
12792;SDS011;6460;42.684;23.260;2023-08-08T01:35:14;1.70;;;1.20;;
12792;SDS011;6460;42.684;23.260;2023-08-08T01:37:43;1.70;;;1.40;;
12792;SDS011;6460;42.684;23.260;2023-08-08T01:40:12;1.63;;;1.40;;
12792;SDS011;6460;42.684;23.260;2023-08-08T01:42:46;2.00;;;1.50;;
12792;SDS011;6460;42.684;23.260;2023-08-08T01:45:15;2.13;;;1.20;;
12792;SDS011;6460;42.684;23.260;2023-08-08T01:47:43;1.40;;;1.30;;
12792;SDS011;6460;42.684;23.260;2023-08-08T01:50:15;1.40;;;1.30;;
12792;SDS011;6460;42.684;23.260;2023-08-08T01:52:43;1.60;;;1.50;;
12792;SDS011;6460;42.684;23.260;2023-08-08T01:55:10;1.60;;;1.50;;
12792;SDS011;6460;42.684;23.260;2023-08-08T01:57:38;1.60;;;1.47;;
12792;SDS011;6460;42.684;23.260;2023-08-08T02:00:08;1.50;;;1.40;;
12792;SDS011;6460;42.684;23.260;2023-08-08T02:02:37;1.50;;;1.40;;
12792;SDS011;6460;42.684;23.260;2023-08-08T02:05:04;1.60;;;1.50;;
12792;SDS011;6460;42.684;23.260;2023-08-08T02:07:32;1.70;;;1.40;;
12792;SDS011;6460;42.684;23.260;2023-08-08T02:10:00;1.40;;;1.30;;
12792;SDS011;6460;42.684;23.260;2023-08-08T02:12:27;1.50;;;1.40;;
12792;SDS011;6460;42.684;23.260;2023-08-08T02:14:55;1.87;;;1.40;;
12792;SDS011;6460;42.684;23.260;2023-08-08T02:17:24;1.40;;;1.30;;
12792;SDS011;6460;42.684;23.260;2023-08-08T02:19:52;1.60;;;1.50;;
12792;SDS011;6460;42.684;23.260;2023-08-08T02:22:19;1.53;;;1.30;;
12792;SDS011;6460;42.684;23.260;2023-08-08T02:24:47;1.43;;;1.33;;
12792;SDS011;6460;42.684;23.260;2023-08-08T02:27:14;2.50;;;2.00;;
12792;SDS011;6460;42.684;23.260;2023-08-08T02:29:41;1.90;;;1.70;;
12792;SDS011;6460;42.684;23.260;2023-08-08T02:32:08;1.80;;;1.70;;
12792;SDS011;6460;42.684;23.260;2023-08-08T02:34:37;1.73;;;1.63;;
12792;SDS011;6460;42.684;23.260;2023-08-08T02:37:03;1.90;;;1.70;;
12792;SDS011;6460;42.684;23.260;2023-08-08T02:39:30;2.20;;;2.00;;
12792;SDS011;6460;42.684;23.260;2023-08-08T02:41:57;2.10;;;1.90;;
12792;SDS011;6460;42.684;23.260;2023-08-08T02:44:24;2.00;;;1.80;;
12792;SDS011;6460;42.684;23.260;2023-08-08T02:46:51;2.87;;;2.00;;
12792;SDS011;6460;42.684;23.260;2023-08-08T02:49:18;2.67;;;2.30;;
12792;SDS011;6460;42.684;23.260;2023-08-08T02:51:46;2.87;;;2.10;;
12792;SDS011;6460;42.684;23.260;2023-08-08T02:54:13;2.03;;;1.83;;
12792;SDS011;6460;42.684;23.260;2023-08-08T02:56:40;2.10;;;1.90;;
12792;SDS011;6460;42.684;23.260;2023-08-08T02:59:07;2.40;;;2.20;;
12792;SDS011;6460;42.684;23.260;2023-08-08T03:01:34;2.63;;;2.40;;
12792;SDS011;6460;42.684;23.260;2023-08-08T03:04:04;2.30;;;2.10;;
12792;SDS011;6460;42.684;23.260;2023-08-08T03:06:31;2.30;;;2.10;;
12792;SDS011;6460;42.684;23.260;2023-08-08T03:08:59;2.40;;;2.20;;
12792;SDS011;6460;42.684;23.260;2023-08-08T03:11:26;2.33;;;2.13;;
12792;SDS011;6460;42.684;23.260;2023-08-08T03:13:53;3.20;;;2.90;;
12792;SDS011;6460;42.684;23.260;2023-08-08T03:16:20;3.00;;;2.70;;
12792;SDS011;6460;42.684;23.260;2023-08-08T03:18:47;3.33;;;3.07;;
12792;SDS011;6460;42.684;23.260;2023-08-08T03:21:14;2.63;;;2.43;;
12792;SDS011;6460;42.684;23.260;2023-08-08T03:23:41;3.47;;;3.17;;
12792;SDS011;6460;42.684;23.260;2023-08-08T03:26:09;3.63;;;3.17;;
12792;SDS011;6460;42.684;23.260;2023-08-08T03:28:36;3.03;;;2.80;;
12792;SDS011;6460;42.684;23.260;2023-08-08T03:31:03;3.83;;;2.73;;
12792;SDS011;6460;42.684;23.260;2023-08-08T03:33:30;2.77;;;2.57;;
12792;SDS011;6460;42.684;23.260;2023-08-08T03:35:57;3.40;;;2.93;;
12792;SDS011;6460;42.684;23.260;2023-08-08T03:38:24;5.87;;;2.80;;
12792;SDS011;6460;42.684;23.260;2023-08-08T03:40:51;3.53;;;2.80;;
12792;SDS011;6460;42.684;23.260;2023-08-08T03:43:20;3.17;;;2.90;;
12792;SDS011;6460;42.684;23.260;2023-08-08T03:45:47;3.90;;;3.10;;
12792;SDS011;6460;42.684;23.260;2023-08-08T03:48:14;3.93;;;2.90;;
12792;SDS011;6460;42.684;23.260;2023-08-08T03:50:41;3.63;;;3.33;;
12792;SDS011;6460;42.684;23.260;2023-08-08T03:53:08;3.20;;;2.90;;
12792;SDS011;6460;42.684;23.260;2023-08-08T03:55:34;3.40;;;3.10;;
12792;SDS011;6460;42.684;23.260;2023-08-08T03:58:01;3.27;;;2.97;;
12792;SDS011;6460;42.684;23.260;2023-08-08T04:00:30;3.40;;;3.10;;
12792;SDS011;6460;42.684;23.260;2023-08-08T04:02:57;3.70;;;3.40;;
12792;SDS011;6460;42.684;23.260;2023-08-08T04:05:24;3.50;;;3.20;;
12792;SDS011;6460;42.684;23.260;2023-08-08T04:07:51;3.63;;;3.23;;
12792;SDS011;6460;42.684;23.260;2023-08-08T04:10:18;3.50;;;3.20;;
12792;SDS011;6460;42.684;23.260;2023-08-08T04:12:45;2.97;;;2.77;;
12792;SDS011;6460;42.684;23.260;2023-08-08T04:15:12;3.43;;;3.13;;
12792;SDS011;6460;42.684;23.260;2023-08-08T04:17:40;3.23;;;2.93;;
12792;SDS011;6460;42.684;23.260;2023-08-08T04:20:07;3.63;;;2.80;;
12792;SDS011;6460;42.684;23.260;2023-08-08T04:22:35;3.33;;;3.07;;
12792;SDS011;6460;42.684;23.260;2023-08-08T04:25:03;3.27;;;2.97;;
12792;SDS011;6460;42.684;23.260;2023-08-08T04:27:31;3.13;;;2.90;;
12792;SDS011;6460;42.684;23.260;2023-08-08T04:29:58;3.80;;;3.40;;
12792;SDS011;6460;42.684;23.260;2023-08-08T04:32:25;3.40;;;3.00;;
12792;SDS011;6460;42.684;23.260;2023-08-08T04:34:53;3.37;;;3.07;;
12792;SDS011;6460;42.684;23.260;2023-08-08T04:37:20;3.87;;;3.30;;
12792;SDS011;6460;42.684;23.260;2023-08-08T04:39:47;6.17;;;3.20;;
12792;SDS011;6460;42.684;23.260;2023-08-08T04:42:14;3.37;;;3.00;;
12792;SDS011;6460;42.684;23.260;2023-08-08T04:44:41;3.90;;;3.60;;
12792;SDS011;6460;42.684;23.260;2023-08-08T04:47:08;4.07;;;3.17;;
12792;SDS011;6460;42.684;23.260;2023-08-08T04:49:35;4.03;;;3.53;;
12792;SDS011;6460;42.684;23.260;2023-08-08T04:52:03;3.60;;;3.13;;
12792;SDS011;6460;42.684;23.260;2023-08-08T04:54:31;3.60;;;3.30;;
12792;SDS011;6460;42.684;23.260;2023-08-08T04:56:57;3.07;;;2.80;;
12792;SDS011;6460;42.684;23.260;2023-08-08T04:59:24;3.30;;;3.00;;
12792;SDS011;6460;42.684;23.260;2023-08-08T05:01:51;3.40;;;3.03;;
12792;SDS011;6460;42.684;23.260;2023-08-08T05:04:18;3.10;;;2.90;;
12792;SDS011;6460;42.684;23.260;2023-08-08T05:06:45;3.40;;;3.10;;
12792;SDS011;6460;42.684;23.260;2023-08-08T05:09:16;3.20;;;2.90;;
12792;SDS011;6460;42.684;23.260;2023-08-08T05:11:45;3.17;;;2.87;;
12792;SDS011;6460;42.684;23.260;2023-08-08T05:14:12;2.83;;;2.63;;
12792;SDS011;6460;42.684;23.260;2023-08-08T05:16:39;3.47;;;3.03;;
12792;SDS011;6460;42.684;23.260;2023-08-08T05:19:06;3.50;;;3.20;;
12792;SDS011;6460;42.684;23.260;2023-08-08T05:21:34;3.10;;;2.80;;
12792;SDS011;6460;42.684;23.260;2023-08-08T05:24:01;2.87;;;2.60;;
12792;SDS011;6460;42.684;23.260;2023-08-08T05:26:29;3.03;;;2.77;;
12792;SDS011;6460;42.684;23.260;2023-08-08T05:28:56;4.07;;;3.17;;
12792;SDS011;6460;42.684;23.260;2023-08-08T05:31:24;5.30;;;3.27;;
12792;SDS011;6460;42.684;23.260;2023-08-08T05:33:50;4.70;;;2.87;;
12792;SDS011;6460;42.684;23.260;2023-08-08T05:36:17;3.80;;;3.10;;
12792;SDS011;6460;42.684;23.260;2023-08-08T05:38:44;3.13;;;2.83;;
12792;SDS011;6460;42.684;23.260;2023-08-08T05:41:11;3.37;;;3.07;;
12792;SDS011;6460;42.684;23.260;2023-08-08T05:43:40;3.57;;;2.93;;
12792;SDS011;6460;42.684;23.260;2023-08-08T05:46:07;3.20;;;2.97;;
12792;SDS011;6460;42.684;23.260;2023-08-08T05:48:34;4.63;;;3.60;;
12792;SDS011;6460;42.684;23.260;2023-08-08T05:51:01;3.10;;;2.90;;
12792;SDS011;6460;42.684;23.260;2023-08-08T05:53:30;4.03;;;3.73;;
12792;SDS011;6460;42.684;23.260;2023-08-08T05:55:57;3.60;;;3.20;;
12792;SDS011;6460;42.684;23.260;2023-08-08T05:58:24;4.37;;;3.73;;
12792;SDS011;6460;42.684;23.260;2023-08-08T06:00:52;3.80;;;3.50;;
12792;SDS011;6460;42.684;23.260;2023-08-08T06:03:19;3.37;;;3.07;;
12792;SDS011;6460;42.684;23.260;2023-08-08T06:05:46;3.77;;;3.47;;
12792;SDS011;6460;42.684;23.260;2023-08-08T06:08:13;3.67;;;3.37;;
12792;SDS011;6460;42.684;23.260;2023-08-08T06:10:41;5.40;;;3.17;;
12792;SDS011;6460;42.684;23.260;2023-08-08T06:13:08;3.93;;;3.63;;
12792;SDS011;6460;42.684;23.260;2023-08-08T06:15:35;4.30;;;3.90;;
12792;SDS011;6460;42.684;23.260;2023-08-08T06:18:04;4.30;;;3.90;;
12792;SDS011;6460;42.684;23.260;2023-08-08T06:20:31;4.43;;;4.03;;
12792;SDS011;6460;42.684;23.260;2023-08-08T06:22:58;6.80;;;5.97;;
12792;SDS011;6460;42.684;23.260;2023-08-08T06:25:28;4.23;;;3.53;;
12792;SDS011;6460;42.684;23.260;2023-08-08T06:27:55;3.50;;;3.20;;
12792;SDS011;6460;42.684;23.260;2023-08-08T06:30:22;3.50;;;3.20;;
12792;SDS011;6460;42.684;23.260;2023-08-08T06:32:49;3.00;;;2.80;;
12792;SDS011;6460;42.684;23.260;2023-08-08T06:35:18;3.40;;;3.10;;
12792;SDS011;6460;42.684;23.260;2023-08-08T06:37:45;5.00;;;3.83;;
12792;SDS011;6460;42.684;23.260;2023-08-08T06:40:12;3.30;;;3.00;;
12792;SDS011;6460;42.684;23.260;2023-08-08T06:42:39;2.97;;;2.77;;
12792;SDS011;6460;42.684;23.260;2023-08-08T06:45:06;2.47;;;2.27;;
12792;SDS011;6460;42.684;23.260;2023-08-08T06:47:35;2.33;;;2.13;;
12792;SDS011;6460;42.684;23.260;2023-08-08T06:50:02;1.60;;;1.50;;
12792;SDS011;6460;42.684;23.260;2023-08-08T06:52:31;1.90;;;1.80;;
12792;SDS011;6460;42.684;23.260;2023-08-08T06:57:53;2.30;;;2.10;;
12792;SDS011;6460;42.684;23.260;2023-08-08T07:00:20;2.57;;;2.33;;
12792;SDS011;6460;42.684;23.260;2023-08-08T07:02:47;2.43;;;2.23;;
12792;SDS011;6460;42.684;23.260;2023-08-08T07:05:14;2.40;;;2.00;;
12792;SDS011;6460;42.684;23.260;2023-08-08T07:07:43;4.30;;;3.90;;
12792;SDS011;6460;42.684;23.260;2023-08-08T07:10:11;3.33;;;3.03;;
12792;SDS011;6460;42.684;23.260;2023-08-08T07:12:38;2.30;;;2.10;;
12792;SDS011;6460;42.684;23.260;2023-08-08T07:15:06;10.53;;;5.47;;
12792;SDS011;6460;42.684;23.260;2023-08-08T07:17:36;9.00;;;7.47;;
12792;SDS011;6460;42.684;23.260;2023-08-08T07:20:03;3.40;;;3.10;;
12792;SDS011;6460;42.684;23.260;2023-08-08T07:22:31;1.77;;;1.67;;
12792;SDS011;6460;42.684;23.260;2023-08-08T07:25:00;1.83;;;1.73;;
12792;SDS011;6460;42.684;23.260;2023-08-08T07:27:28;1.47;;;1.37;;
12792;SDS011;6460;42.684;23.260;2023-08-08T07:29:55;1.60;;;1.50;;
12792;SDS011;6460;42.684;23.260;2023-08-08T07:32:22;1.70;;;1.60;;
12792;SDS011;6460;42.684;23.260;2023-08-08T07:34:49;1.93;;;1.70;;
12792;SDS011;6460;42.684;23.260;2023-08-08T07:37:16;2.70;;;1.60;;
12792;SDS011;6460;42.684;23.260;2023-08-08T07:39:43;1.67;;;1.57;;
12792;SDS011;6460;42.684;23.260;2023-08-08T07:42:11;1.73;;;1.50;;
12792;SDS011;6460;42.684;23.260;2023-08-08T07:44:38;1.40;;;1.30;;
12792;SDS011;6460;42.684;23.260;2023-08-08T07:47:05;1.50;;;1.40;;
12792;SDS011;6460;42.684;23.260;2023-08-08T07:49:32;3.03;;;2.80;;
12792;SDS011;6460;42.684;23.260;2023-08-08T07:51:59;1.67;;;1.57;;
12792;SDS011;6460;42.684;23.260;2023-08-08T07:54:26;4.50;;;2.90;;
12792;SDS011;6460;42.684;23.260;2023-08-08T07:56:53;2.30;;;1.43;;
12792;SDS011;6460;42.684;23.260;2023-08-08T07:59:23;2.30;;;1.97;;
12792;SDS011;6460;42.684;23.260;2023-08-08T08:01:50;1.43;;;1.33;;
12792;SDS011;6460;42.684;23.260;2023-08-08T08:04:17;1.60;;;1.50;;
12792;SDS011;6460;42.684;23.260;2023-08-08T08:06:44;2.10;;;1.63;;
12792;SDS011;6460;42.684;23.260;2023-08-08T08:09:12;1.80;;;1.70;;
12792;SDS011;6460;42.684;23.260;2023-08-08T08:11:39;2.00;;;1.60;;
12792;SDS011;6460;42.684;23.260;2023-08-08T08:14:06;1.63;;;1.53;;
12792;SDS011;6460;42.684;23.260;2023-08-08T08:16:34;1.60;;;1.50;;
12792;SDS011;6460;42.684;23.260;2023-08-08T08:19:02;1.60;;;1.50;;
12792;SDS011;6460;42.684;23.260;2023-08-08T08:21:33;1.67;;;1.57;;
12792;SDS011;6460;42.684;23.260;2023-08-08T08:24:00;1.40;;;1.30;;
12792;SDS011;6460;42.684;23.260;2023-08-08T08:26:27;2.13;;;1.77;;
12792;SDS011;6460;42.684;23.260;2023-08-08T08:28:54;1.90;;;1.80;;
12792;SDS011;6460;42.684;23.260;2023-08-08T08:31:21;2.13;;;1.80;;
12792;SDS011;6460;42.684;23.260;2023-08-08T08:33:50;1.80;;;1.70;;
12792;SDS011;6460;42.684;23.260;2023-08-08T08:36:19;2.47;;;1.80;;
12792;SDS011;6460;42.684;23.260;2023-08-08T08:38:46;1.77;;;1.67;;
12792;SDS011;6460;42.684;23.260;2023-08-08T08:41:17;1.77;;;1.67;;
12792;SDS011;6460;42.684;23.260;2023-08-08T08:43:47;2.03;;;1.90;;
12792;SDS011;6460;42.684;23.260;2023-08-08T08:46:17;2.00;;;1.80;;
12792;SDS011;6460;42.684;23.260;2023-08-08T08:48:47;2.23;;;2.00;;
12792;SDS011;6460;42.684;23.260;2023-08-08T08:51:17;2.13;;;1.83;;
12792;SDS011;6460;42.684;23.260;2023-08-08T08:53:45;1.87;;;1.77;;
12792;SDS011;6460;42.684;23.260;2023-08-08T08:56:13;1.97;;;1.83;;
12792;SDS011;6460;42.684;23.260;2023-08-08T08:58:41;1.90;;;1.80;;
12792;SDS011;6460;42.684;23.260;2023-08-08T09:01:08;2.00;;;1.80;;
12792;SDS011;6460;42.684;23.260;2023-08-08T09:03:36;2.20;;;2.10;;
12792;SDS011;6460;42.684;23.260;2023-08-08T09:06:04;2.03;;;1.83;;
12792;SDS011;6460;42.684;23.260;2023-08-08T09:08:32;1.73;;;1.57;;
12792;SDS011;6460;42.684;23.260;2023-08-08T09:10:59;1.70;;;1.60;;
12792;SDS011;6460;42.684;23.260;2023-08-08T09:13:33;3.27;;;1.57;;
12792;SDS011;6460;42.684;23.260;2023-08-08T09:16:04;1.93;;;1.70;;
12792;SDS011;6460;42.684;23.260;2023-08-08T09:18:31;2.00;;;1.90;;
12792;SDS011;6460;42.684;23.260;2023-08-08T09:20:58;1.60;;;1.50;;
12792;SDS011;6460;42.684;23.260;2023-08-08T09:23:26;1.60;;;1.50;;
12792;SDS011;6460;42.684;23.260;2023-08-08T09:25:53;1.83;;;1.73;;
12792;SDS011;6460;42.684;23.260;2023-08-08T09:28:20;2.20;;;2.00;;
12792;SDS011;6460;42.684;23.260;2023-08-08T09:30:47;2.50;;;1.97;;
12792;SDS011;6460;42.684;23.260;2023-08-08T09:33:14;2.13;;;2.03;;
12792;SDS011;6460;42.684;23.260;2023-08-08T09:35:41;2.70;;;2.33;;
12792;SDS011;6460;42.684;23.260;2023-08-08T09:38:08;2.00;;;1.80;;
12792;SDS011;6460;42.684;23.260;2023-08-08T09:40:37;2.13;;;1.93;;
12792;SDS011;6460;42.684;23.260;2023-08-08T09:43:06;2.07;;;1.97;;
12792;SDS011;6460;42.684;23.260;2023-08-08T09:45:36;2.20;;;2.00;;
12792;SDS011;6460;42.684;23.260;2023-08-08T09:48:05;2.20;;;2.00;;
12792;SDS011;6460;42.684;23.260;2023-08-08T09:50:32;1.83;;;1.73;;
12792;SDS011;6460;42.684;23.260;2023-08-08T09:53:00;2.30;;;2.10;;
12792;SDS011;6460;42.684;23.260;2023-08-08T09:55:28;2.00;;;1.90;;
12792;SDS011;6460;42.684;23.260;2023-08-08T09:57:57;1.90;;;1.80;;
12792;SDS011;6460;42.684;23.260;2023-08-08T10:00:25;2.50;;;2.30;;
12792;SDS011;6460;42.684;23.260;2023-08-08T10:02:53;2.20;;;1.90;;
12792;SDS011;6460;42.684;23.260;2023-08-08T10:05:26;2.00;;;1.80;;
12792;SDS011;6460;42.684;23.260;2023-08-08T10:07:53;1.90;;;1.70;;
12792;SDS011;6460;42.684;23.260;2023-08-08T10:10:21;2.00;;;1.90;;
12792;SDS011;6460;42.684;23.260;2023-08-08T10:12:48;2.37;;;2.17;;
12792;SDS011;6460;42.684;23.260;2023-08-08T10:15:17;2.13;;;1.97;;
12792;SDS011;6460;42.684;23.260;2023-08-08T10:17:45;2.63;;;2.43;;
12792;SDS011;6460;42.684;23.260;2023-08-08T10:20:12;1.80;;;1.70;;
12792;SDS011;6460;42.684;23.260;2023-08-08T10:22:43;2.10;;;1.90;;
12792;SDS011;6460;42.684;23.260;2023-08-08T10:25:26;2.17;;;1.93;;
12792;SDS011;6460;42.684;23.260;2023-08-08T10:28:05;2.90;;;1.70;;
12792;SDS011;6460;42.684;23.260;2023-08-08T10:30:46;1.97;;;1.87;;
12792;SDS011;6460;42.684;23.260;2023-08-08T10:33:15;2.10;;;2.00;;
12792;SDS011;6460;42.684;23.260;2023-08-08T10:35:50;1.80;;;1.70;;
12792;SDS011;6460;42.684;23.260;2023-08-08T10:38:21;2.20;;;2.00;;
12792;SDS011;6460;42.684;23.260;2023-08-08T10:40:53;1.83;;;1.73;;
12792;SDS011;6460;42.684;23.260;2023-08-08T10:43:25;1.70;;;1.60;;
12792;SDS011;6460;42.684;23.260;2023-08-08T10:46:00;9.37;;;6.60;;
12792;SDS011;6460;42.684;23.260;2023-08-08T10:48:34;1.73;;;1.63;;
12792;SDS011;6460;42.684;23.260;2023-08-08T10:51:01;1.60;;;1.50;;
12792;SDS011;6460;42.684;23.260;2023-08-08T10:53:30;1.80;;;1.70;;
12792;SDS011;6460;42.684;23.260;2023-08-08T10:56:01;1.37;;;1.20;;
12792;SDS011;6460;42.684;23.260;2023-08-08T10:58:35;2.43;;;1.60;;
12792;SDS011;6460;42.684;23.260;2023-08-08T11:01:05;1.57;;;1.47;;
12792;SDS011;6460;42.684;23.260;2023-08-08T11:03:34;1.63;;;1.53;;
12792;SDS011;6460;42.684;23.260;2023-08-08T11:06:03;1.67;;;1.57;;
12792;SDS011;6460;42.684;23.260;2023-08-08T11:08:31;1.90;;;1.80;;
12792;SDS011;6460;42.684;23.260;2023-08-08T11:10:59;2.23;;;1.40;;
12792;SDS011;6460;42.684;23.260;2023-08-08T11:13:26;1.83;;;1.57;;
12792;SDS011;6460;42.684;23.260;2023-08-08T11:15:54;1.60;;;1.50;;
12792;SDS011;6460;42.684;23.260;2023-08-08T11:18:23;1.73;;;1.63;;
12792;SDS011;6460;42.684;23.260;2023-08-08T11:20:53;1.30;;;1.20;;
12792;SDS011;6460;42.684;23.260;2023-08-08T11:23:21;2.57;;;1.70;;
12792;SDS011;6460;42.684;23.260;2023-08-08T11:25:51;1.50;;;1.40;;
12792;SDS011;6460;42.684;23.260;2023-08-08T11:28:24;1.97;;;1.80;;
12792;SDS011;6460;42.684;23.260;2023-08-08T11:30:51;1.60;;;1.50;;
12792;SDS011;6460;42.684;23.260;2023-08-08T11:33:18;1.70;;;1.60;;
12792;SDS011;6460;42.684;23.260;2023-08-08T11:35:51;2.43;;;2.23;;
12792;SDS011;6460;42.684;23.260;2023-08-08T11:38:19;1.50;;;1.40;;
12792;SDS011;6460;42.684;23.260;2023-08-08T11:41:00;1.40;;;1.30;;
12792;SDS011;6460;42.684;23.260;2023-08-08T11:43:34;1.50;;;1.40;;
12792;SDS011;6460;42.684;23.260;2023-08-08T11:46:01;1.60;;;1.50;;
12792;SDS011;6460;42.684;23.260;2023-08-08T11:48:28;1.50;;;1.40;;
12792;SDS011;6460;42.684;23.260;2023-08-08T11:51:02;1.57;;;1.47;;
12792;SDS011;6460;42.684;23.260;2023-08-08T11:53:30;2.00;;;1.50;;
12792;SDS011;6460;42.684;23.260;2023-08-08T11:55:57;1.67;;;1.57;;
12792;SDS011;6460;42.684;23.260;2023-08-08T11:58:25;1.60;;;1.50;;
12792;SDS011;6460;42.684;23.260;2023-08-08T12:00:52;2.90;;;1.63;;
12792;SDS011;6460;42.684;23.260;2023-08-08T12:03:20;1.70;;;1.50;;
12792;SDS011;6460;42.684;23.260;2023-08-08T12:05:47;1.60;;;1.50;;
12792;SDS011;6460;42.684;23.260;2023-08-08T12:08:18;1.67;;;1.57;;
12792;SDS011;6460;42.684;23.260;2023-08-08T12:10:49;1.40;;;1.30;;
12792;SDS011;6460;42.684;23.260;2023-08-08T12:13:19;1.63;;;1.40;;
12792;SDS011;6460;42.684;23.260;2023-08-08T12:15:46;1.40;;;1.30;;
12792;SDS011;6460;42.684;23.260;2023-08-08T12:18:15;2.77;;;1.73;;
12792;SDS011;6460;42.684;23.260;2023-08-08T12:20:42;1.60;;;1.50;;
12792;SDS011;6460;42.684;23.260;2023-08-08T12:23:09;1.70;;;1.60;;
12792;SDS011;6460;42.684;23.260;2023-08-08T12:25:38;1.77;;;1.60;;
12792;SDS011;6460;42.684;23.260;2023-08-08T12:28:05;1.43;;;1.33;;
12792;SDS011;6460;42.684;23.260;2023-08-08T12:30:32;1.63;;;1.53;;
12792;SDS011;6460;42.684;23.260;2023-08-08T12:33:00;1.50;;;1.40;;
12792;SDS011;6460;42.684;23.260;2023-08-08T12:35:27;1.53;;;1.43;;
12792;SDS011;6460;42.684;23.260;2023-08-08T12:37:54;1.80;;;1.70;;
12792;SDS011;6460;42.684;23.260;2023-08-08T12:40:20;2.73;;;1.63;;
12792;SDS011;6460;42.684;23.260;2023-08-08T12:42:49;1.80;;;1.70;;
12792;SDS011;6460;42.684;23.260;2023-08-08T12:45:16;1.67;;;1.57;;
12792;SDS011;6460;42.684;23.260;2023-08-08T12:47:44;1.63;;;1.50;;
12792;SDS011;6460;42.684;23.260;2023-08-08T12:50:11;1.70;;;1.60;;
12792;SDS011;6460;42.684;23.260;2023-08-08T12:52:39;1.73;;;1.63;;
12792;SDS011;6460;42.684;23.260;2023-08-08T12:55:07;1.70;;;1.60;;
12792;SDS011;6460;42.684;23.260;2023-08-08T12:57:36;1.80;;;1.47;;
12792;SDS011;6460;42.684;23.260;2023-08-08T13:00:08;2.07;;;1.60;;
12792;SDS011;6460;42.684;23.260;2023-08-08T13:02:37;1.50;;;1.40;;
12792;SDS011;6460;42.684;23.260;2023-08-08T13:05:05;2.37;;;1.73;;
12792;SDS011;6460;42.684;23.260;2023-08-08T13:07:33;1.43;;;1.33;;
12792;SDS011;6460;42.684;23.260;2023-08-08T13:10:00;1.50;;;1.40;;
12792;SDS011;6460;42.684;23.260;2023-08-08T13:12:27;1.63;;;1.53;;
12792;SDS011;6460;42.684;23.260;2023-08-08T13:15:17;1.60;;;1.50;;
12792;SDS011;6460;42.684;23.260;2023-08-08T13:17:46;1.70;;;1.60;;
12792;SDS011;6460;42.684;23.260;2023-08-08T13:20:13;1.70;;;1.60;;
12792;SDS011;6460;42.684;23.260;2023-08-08T13:22:51;1.77;;;1.67;;
12792;SDS011;6460;42.684;23.260;2023-08-08T13:25:19;1.40;;;1.30;;
12792;SDS011;6460;42.684;23.260;2023-08-08T13:27:48;2.27;;;1.50;;
12792;SDS011;6460;42.684;23.260;2023-08-08T13:30:20;1.50;;;1.40;;
12792;SDS011;6460;42.684;23.260;2023-08-08T13:32:47;1.50;;;1.40;;
12792;SDS011;6460;42.684;23.260;2023-08-08T13:35:14;1.50;;;1.40;;
12792;SDS011;6460;42.684;23.260;2023-08-08T13:37:41;1.80;;;1.70;;
12792;SDS011;6460;42.684;23.260;2023-08-08T13:40:11;1.57;;;1.47;;
12792;SDS011;6460;42.684;23.260;2023-08-08T13:42:38;1.90;;;1.80;;
12792;SDS011;6460;42.684;23.260;2023-08-08T13:45:05;1.80;;;1.70;;
12792;SDS011;6460;42.684;23.260;2023-08-08T13:47:35;1.73;;;1.50;;
12792;SDS011;6460;42.684;23.260;2023-08-08T13:50:03;1.40;;;1.30;;
12792;SDS011;6460;42.684;23.260;2023-08-08T13:52:31;1.40;;;1.30;;
12792;SDS011;6460;42.684;23.260;2023-08-08T13:55:00;1.70;;;1.60;;
12792;SDS011;6460;42.684;23.260;2023-08-08T13:57:27;1.70;;;1.60;;
12792;SDS011;6460;42.684;23.260;2023-08-08T13:59:54;1.63;;;1.53;;
12792;SDS011;6460;42.684;23.260;2023-08-08T14:02:21;1.50;;;1.40;;
12792;SDS011;6460;42.684;23.260;2023-08-08T14:04:49;1.50;;;1.40;;
12792;SDS011;6460;42.684;23.260;2023-08-08T14:07:18;1.47;;;1.37;;
12792;SDS011;6460;42.684;23.260;2023-08-08T14:09:46;1.50;;;1.40;;
12792;SDS011;6460;42.684;23.260;2023-08-08T14:12:13;1.67;;;1.57;;
12792;SDS011;6460;42.684;23.260;2023-08-08T14:14:41;1.50;;;1.40;;
12792;SDS011;6460;42.684;23.260;2023-08-08T14:17:08;1.43;;;1.33;;
12792;SDS011;6460;42.684;23.260;2023-08-08T14:19:35;1.67;;;1.47;;
12792;SDS011;6460;42.684;23.260;2023-08-08T14:22:06;1.60;;;1.50;;
12792;SDS011;6460;42.684;23.260;2023-08-08T14:24:33;1.30;;;1.20;;
12792;SDS011;6460;42.684;23.260;2023-08-08T14:27:00;1.50;;;1.40;;
12792;SDS011;6460;42.684;23.260;2023-08-08T14:29:27;1.40;;;1.30;;
12792;SDS011;6460;42.684;23.260;2023-08-08T14:31:54;1.30;;;1.20;;
12792;SDS011;6460;42.684;23.260;2023-08-08T14:34:27;1.53;;;1.43;;
12792;SDS011;6460;42.684;23.260;2023-08-08T14:36:55;1.47;;;1.37;;
12792;SDS011;6460;42.684;23.260;2023-08-08T14:39:24;1.53;;;1.43;;
12792;SDS011;6460;42.684;23.260;2023-08-08T14:41:51;1.50;;;1.27;;
12792;SDS011;6460;42.684;23.260;2023-08-08T14:44:18;1.50;;;1.40;;
12792;SDS011;6460;42.684;23.260;2023-08-08T14:46:45;1.97;;;1.70;;
12792;SDS011;6460;42.684;23.260;2023-08-08T14:49:11;1.70;;;1.60;;
12792;SDS011;6460;42.684;23.260;2023-08-08T14:51:38;1.57;;;1.47;;
12792;SDS011;6460;42.684;23.260;2023-08-08T14:54:06;1.53;;;1.43;;
12792;SDS011;6460;42.684;23.260;2023-08-08T14:56:34;1.63;;;1.53;;